Time;durP1;ratioP1;P1;durP2;ratioP2;P2;SDS_P1;SDS_P2;PMS_P1;PMS_P2;Temp;Humidity;BMP_temperature;BMP_pressure;BME280_temperature;BME280_humidity;BME280_pressure;Samples;Min_cycle;Max_cycle;Signal;HPM_P1;HPM_P2
2021/07/14 00:00:38;;;;;;;17.40;16.00;;;;;24.40;99820.00;;;;2059000;28;20242;-65
2021/07/14 00:01:38;;;;;;;17.20;15.80;;;;;24.40;99821.00;;;;2059682;28;20222;-65
2021/07/14 00:02:39;;;;;;;16.50;15.20;;;;;24.40;99817.00;;;;2059102;28;20225;-65
2021/07/14 00:03:39;;;;;;;17.43;15.93;;;;;24.40;99817.00;;;;2058816;28;20260;-64
2021/07/14 00:04:39;;;;;;;17.10;15.70;;;;;24.40;99820.00;;;;2058874;28;20219;-64
2021/07/14 00:05:40;;;;;;;16.80;15.40;;;;;24.40;99813.00;;;;2057932;28;20211;-64
2021/07/14 00:06:41;;;;;;;17.37;16.07;;;;;24.40;99809.00;;;;2058368;28;20227;-64
2021/07/14 00:07:41;;;;;;;16.70;15.33;;;;;24.40;99825.00;;;;2059222;28;20451;-64
2021/07/14 00:08:42;;;;;;;17.37;15.97;;;;;24.40;99825.00;;;;2058849;28;20215;-64
2021/07/14 00:09:42;;;;;;;16.27;15.00;;;;;24.40;99817.00;;;;2059192;28;20317;-64
2021/07/14 00:10:42;;;;;;;15.70;14.47;;;;;24.40;99823.00;;;;2058478;28;20218;-64
2021/07/14 00:11:51;;;;;;;16.50;15.20;;;;;24.40;99826.00;;;;2058721;28;20215;-64
2021/07/14 00:13:00;;;;;;;16.45;15.15;;;;;24.40;99828.00;;;;2061129;28;20218;-64
2021/07/14 00:14:15;;;;;;;16.95;15.52;;;;;24.40;99826.00;;;;2058922;28;20211;-64
2021/07/14 00:22:07;;;;;;;16.83;15.52;;;;;24.40;99820.00;;;;2066331;28;20210;-64
2021/07/14 00:22:07;;;;;;;17.08;15.77;;;;;24.40;99839.00;;;;2067689;28;20210;-64
2021/07/14 00:23:08;;;;;;;16.55;15.25;;;;;24.40;99836.00;;;;2067722;28;20218;-64
2021/07/14 00:24:08;;;;;;;17.13;15.63;;;;;24.40;99833.00;;;;2066877;28;20218;-64
2021/07/14 00:25:11;;;;;;;16.60;15.30;;;;;24.40;99828.00;;;;2066990;28;20362;-64
2021/07/14 00:26:11;;;;;;;16.90;15.60;;;;;24.40;99832.00;;;;2067596;28;20215;-64
2021/07/14 00:27:12;;;;;;;16.20;14.90;;;;;24.40;99826.00;;;;2067460;28;20214;-64
2021/07/14 00:28:13;;;;;;;17.30;16.00;;;;;24.40;99829.00;;;;2067357;28;20214;-64
2021/07/14 00:29:15;;;;;;;15.68;14.38;;;;;24.40;99827.00;;;;2066679;28;20225;-64
2021/07/14 00:30:22;;;;;;;15.57;14.38;;;;;24.40;99844.00;;;;2066059;28;20233;-64
2021/07/14 00:31:23;;;;;;;15.80;14.60;;;;;24.40;99833.00;;;;2066756;28;20221;-64
2021/07/14 00:32:23;;;;;;;16.50;15.20;;;;;24.40;99839.00;;;;2067027;28;20662;-64
2021/07/14 00:33:26;;;;;;;15.40;14.30;;;;;24.40;99840.00;;;;2067623;28;20700;-64
2021/07/14 00:34:26;;;;;;;15.77;14.57;;;;;24.40;99837.00;;;;2067402;28;20215;-64
2021/07/14 00:35:27;;;;;;;16.50;15.17;;;;;24.40;99832.00;;;;2059425;28;20214;-64
2021/07/14 00:36:27;;;;;;;16.60;15.30;;;;;24.40;99834.00;;;;2069150;28;20226;-64
2021/07/14 00:37:27;;;;;;;16.27;14.97;;;;;24.30;99834.00;;;;2066717;28;20211;-64
2021/07/14 00:38:28;;;;;;;15.87;14.73;;;;;24.40;99835.00;;;;2067434;28;20225;-64
2021/07/14 00:39:28;;;;;;;15.60;14.40;;;;;24.40;99835.00;;;;2067351;28;20214;-65
2021/07/14 00:40:28;;;;;;;15.50;14.30;;;;;24.40;99832.00;;;;2066521;28;20583;-65
2021/07/14 00:41:29;;;;;;;15.47;14.23;;;;;24.40;99834.00;;;;2066738;28;20641;-64
2021/07/14 00:42:29;;;;;;;16.07;14.80;;;;;24.40;99833.00;;;;2066612;28;20217;-64
2021/07/14 00:43:29;;;;;;;15.77;14.50;;;;;24.40;99829.00;;;;2066581;28;20247;-65
2021/07/14 00:44:30;;;;;;;15.87;14.57;;;;;24.40;99835.00;;;;2066819;28;20218;-64
2021/07/14 00:45:30;;;;;;;16.10;14.80;;;;;24.40;99834.00;;;;2067369;28;20301;-64
2021/07/14 00:46:30;;;;;;;16.40;15.10;;;;;24.40;99835.00;;;;2069619;28;20214;-65
2021/07/14 00:47:32;;;;;;;16.53;15.13;;;;;24.40;99836.00;;;;2050028;28;20227;-65
2021/07/14 00:48:32;;;;;;;16.40;15.10;;;;;24.40;99830.00;;;;2049923;28;20743;-65
2021/07/14 00:49:33;;;;;;;14.97;13.77;;;;;24.40;99830.00;;;;2058362;28;20246;-65
2021/07/14 00:50:34;;;;;;;15.63;14.43;;;;;24.40;99830.00;;;;2063419;28;20223;-64
2021/07/14 00:51:35;;;;;;;15.63;14.45;;;;;24.40;99833.00;;;;2066852;28;20486;-64
2021/07/14 00:52:36;;;;;;;16.10;14.83;;;;;24.40;99830.00;;;;2050826;28;20238;-64
2021/07/14 00:53:36;;;;;;;15.18;14.07;;;;;24.40;99835.00;;;;2042179;28;20618;-64
2021/07/14 00:54:37;;;;;;;14.93;13.83;;;;;24.40;99842.00;;;;2061658;28;20214;-64
2021/07/14 00:55:37;;;;;;;15.30;14.20;;;;;24.40;99837.00;;;;2067875;28;20236;-64
2021/07/14 00:56:39;;;;;;;15.77;14.47;;;;;24.40;99835.00;;;;2067395;28;20354;-64
2021/07/14 00:57:39;;;;;;;16.13;14.85;;;;;24.40;99835.00;;;;2067353;28;20226;-64
2021/07/14 00:58:39;;;;;;;14.10;13.00;;;;;24.40;99838.00;;;;2067369;28;20234;-64
2021/07/14 00:59:40;;;;;;;14.13;13.03;;;;;24.40;99838.00;;;;2058515;28;20231;-65
2021/07/14 01:00:40;;;;;;;16.17;14.87;;;;;24.40;99840.00;;;;2058131;28;20778;-64
2021/07/14 01:01:43;;;;;;;14.53;13.33;;;;;24.30;99831.00;;;;2064453;28;20747;-64
2021/07/14 01:02:43;;;;;;;15.40;14.20;;;;;24.40;99830.00;;;;2057960;28;20234;-64
2021/07/14 01:04:09;;;;;;;14.80;13.73;;;;;24.40;99835.00;;;;2049748;28;20216;-64
2021/07/14 01:05:14;;;;;;;14.98;13.80;;;;;24.40;99834.00;;;;2060884;28;20210;-64
2021/07/14 01:06:21;;;;;;;15.00;13.80;;;;;24.40;99839.00;;;;2058438;28;20216;-64
2021/07/14 01:07:31;;;;;;;15.05;13.85;;;;;24.40;99832.00;;;;2051642;28;20227;-64
2021/07/14 01:08:40;;;;;;;13.73;12.68;;;;;24.40;99827.00;;;;2051061;28;20258;-64
2021/07/14 01:10:17;;;;;;;14.68;13.63;;;;;24.30;99827.00;;;;2059244;28;20618;-64
2021/07/14 01:11:18;;;;;;;15.52;14.23;;;;;24.40;99828.00;;;;2065653;28;20218;-64
2021/07/14 01:12:53;;;;;;;13.88;12.85;;;;;24.40;99823.00;;;;2057872;28;21165;-64
2021/07/14 01:14:10;;;;;;;14.68;13.57;;;;;24.40;99823.00;;;;2056403;28;20218;-64
2021/07/14 01:15:15;;;;;;;14.88;13.68;;;;;24.40;99824.00;;;;2059459;28;20306;-64
2021/07/14 01:16:17;;;;;;;14.52;13.52;;;;;24.40;99826.00;;;;2054055;28;20827;-64
2021/07/14 01:17:18;;;;;;;15.00;13.90;;;;;24.40;99828.00;;;;2041598;29;20222;-64
2021/07/14 01:18:26;;;;;;;15.02;13.82;;;;;24.40;99825.00;;;;2041833;29;20216;-64
2021/07/14 01:19:33;;;;;;;14.45;13.35;;;;;24.40;99826.00;;;;2052446;28;20215;-64
2021/07/14 01:20:55;;;;;;;15.40;14.10;;;;;24.40;99826.00;;;;2057587;28;20585;-64
2021/07/14 01:21:55;;;;;;;14.32;13.20;;;;;24.40;99826.00;;;;2049753;28;20259;-64
2021/07/14 01:22:57;;;;;;;13.50;12.50;;;;;24.40;99823.00;;;;2043444;28;20220;-64
2021/07/14 01:24:08;;;;;;;14.38;13.27;;;;;24.40;99821.00;;;;2042850;28;20260;-64
2021/07/14 01:25:24;;;;;;;14.20;13.10;;;;;24.40;99831.00;;;;2043305;28;20216;-64
2021/07/14 01:26:49;;;;;;;13.90;12.90;;;;;24.30;99824.00;;;;2044002;29;20224;-64
2021/07/14 01:27:49;;;;;;;14.15;13.05;;;;;24.40;99822.00;;;;2054575;28;20230;-64
2021/07/14 01:28:49;;;;;;;14.50;13.40;;;;;24.40;99828.00;;;;2050629;28;20315;-64
2021/07/14 01:29:54;;;;;;;14.37;13.20;;;;;24.30;99817.00;;;;2042654;29;20228;-65
2021/07/14 01:30:55;;;;;;;13.55;12.50;;;;;24.40;99809.00;;;;2050030;28;20220;-64
2021/07/14 01:31:55;;;;;;;14.77;13.50;;;;;24.40;99806.00;;;;2042505;28;20617;-64
2021/07/14 01:32:55;;;;;;;13.80;12.70;;;;;24.40;99808.00;;;;2046224;29;20222;-64
2021/07/14 01:33:57;;;;;;;13.73;12.70;;;;;24.40;99812.00;;;;2043719;29;20201;-64
2021/07/14 01:35:11;;;;;;;13.32;12.32;;;;;24.40;99799.00;;;;2051709;28;20238;-64
2021/07/14 01:36:15;;;;;;;14.25;13.15;;;;;24.40;99807.00;;;;2044551;28;20226;-64
2021/07/14 01:37:16;;;;;;;14.10;12.93;;;;;24.40;99805.00;;;;2043649;28;20221;-64
2021/07/14 01:38:18;;;;;;;14.15;13.07;;;;;24.40;99802.00;;;;2057730;28;20219;-64
2021/07/14 01:39:18;;;;;;;14.45;13.35;;;;;24.40;99807.00;;;;2041828;29;20216;-64
2021/07/14 01:40:19;;;;;;;13.40;12.37;;;;;24.40;99807.00;;;;2041077;29;20331;-64
2021/07/14 01:41:20;;;;;;;13.20;12.30;;;;;24.40;99800.00;;;;2041722;29;20715;-64
2021/07/14 01:42:23;;;;;;;13.75;12.70;;;;;24.40;99803.00;;;;2034017;29;20243;-64
2021/07/14 01:43:23;;;;;;;13.73;12.73;;;;;24.30;99806.00;;;;2042192;29;20223;-64
2021/07/14 01:44:24;;;;;;;13.67;12.67;;;;;24.30;99798.00;;;;2033970;29;20637;-64
2021/07/14 01:45:29;;;;;;;14.13;13.10;;;;;24.30;99797.00;;;;2047704;28;20219;-64
2021/07/14 01:46:31;;;;;;;13.25;12.25;;;;;24.40;99794.00;;;;2056127;28;20212;-65
2021/07/14 01:47:32;;;;;;;13.93;12.93;;;;;24.40;99793.00;;;;2050926;28;20247;-66
2021/07/14 01:48:35;;;;;;;14.00;13.00;;;;;24.40;99796.00;;;;2058771;28;20218;-65
2021/07/14 01:49:35;;;;;;;13.23;12.23;;;;;24.40;99792.00;;;;2049711;28;20255;-65
2021/07/14 01:50:36;;;;;;;13.90;12.80;;;;;24.40;99790.00;;;;2040988;29;20303;-64
2021/07/14 01:51:37;;;;;;;13.20;12.20;;;;;24.30;99794.00;;;;2041536;29;20217;-64
2021/07/14 01:52:38;;;;;;;13.70;12.70;;;;;24.40;99803.00;;;;2042231;28;20673;-64
2021/07/14 01:53:38;;;;;;;13.67;12.67;;;;;24.40;99797.00;;;;2042627;29;20241;-64
2021/07/14 01:54:38;;;;;;;14.10;13.00;;;;;24.40;99798.00;;;;2042440;29;20731;-64
2021/07/14 01:55:39;;;;;;;13.67;12.67;;;;;24.40;99797.00;;;;2042518;28;20290;-64
2021/07/14 01:56:39;;;;;;;13.37;12.40;;;;;24.40;99792.00;;;;2042583;28;20668;-64
2021/07/14 01:57:40;;;;;;;13.93;12.93;;;;;24.20;99797.00;;;;2041725;29;20262;-64
2021/07/14 01:58:42;;;;;;;13.37;12.37;;;;;24.30;99800.00;;;;2025848;29;20309;-64
2021/07/14 01:59:42;;;;;;;13.98;12.88;;;;;24.40;99792.00;;;;2041909;28;20742;-64
2021/07/14 02:00:43;;;;;;;12.83;11.93;;;;;24.40;99782.00;;;;2056536;28;20243;-64
2021/07/14 02:01:44;;;;;;;13.63;12.53;;;;;24.40;99783.00;;;;2050347;28;20224;-65
2021/07/14 02:03:03;;;;;;;12.90;11.90;;;;;24.30;99784.00;;;;2043500;28;20295;-65
2021/07/14 02:05:23;;;;;;;13.07;12.07;;;;;24.30;99787.00;;;;2044208;28;20220;-64
2021/07/14 02:06:23;;;;;;;13.70;12.60;;;;;24.30;99782.00;;;;2048473;28;20224;-64
2021/07/14 02:07:25;;;;;;;12.87;11.93;;;;;24.30;99788.00;;;;2043223;29;20221;-64
2021/07/14 02:08:26;;;;;;;12.65;11.68;;;;;24.30;99787.00;;;;2047604;29;20311;-66
2021/07/14 02:09:27;;;;;;;13.77;12.77;;;;;24.30;99788.00;;;;2046246;29;20283;-65
2021/07/14 02:10:27;;;;;;;12.37;11.47;;;;;24.30;99796.00;;;;2050417;28;20615;-66
2021/07/14 02:11:27;;;;;;;12.83;11.83;;;;;24.30;99790.00;;;;2050651;28;20271;-66
2021/07/14 02:12:29;;;;;;;12.93;11.93;;;;;24.30;99793.00;;;;2042987;29;20205;-66
2021/07/14 02:13:30;;;;;;;12.70;11.80;;;;;24.40;99789.00;;;;2044032;29;20288;-66
2021/07/14 02:14:32;;;;;;;13.00;12.00;;;;;24.30;99791.00;;;;2036221;28;20685;-65
2021/07/14 02:15:32;;;;;;;13.23;12.27;;;;;24.30;99794.00;;;;2052213;28;20217;-66
2021/07/14 02:16:33;;;;;;;13.20;12.20;;;;;24.30;99790.00;;;;2043418;29;20219;-66
2021/07/14 02:17:36;;;;;;;13.63;12.53;;;;;24.30;99789.00;;;;2043249;29;20668;-65
2021/07/14 02:18:41;;;;;;;13.10;12.20;;;;;24.30;99787.00;;;;2043301;29;20216;-66
2021/07/14 02:19:45;;;;;;;12.82;11.93;;;;;24.30;99791.00;;;;2043844;28;20220;-66
2021/07/14 02:20:45;;;;;;;12.98;12.02;;;;;24.30;99786.00;;;;2043013;29;20583;-65
2021/07/14 02:21:45;;;;;;;13.33;12.33;;;;;24.30;99783.00;;;;2043916;28;20213;-66
2021/07/14 02:22:46;;;;;;;14.20;13.10;;;;;24.40;99789.00;;;;2060501;28;20226;-66
2021/07/14 02:23:47;;;;;;;13.23;12.23;;;;;24.40;99796.00;;;;2059363;28;20223;-65
2021/07/14 02:24:47;;;;;;;13.53;12.53;;;;;24.40;99788.00;;;;2055393;28;20211;-66
2021/07/14 02:25:48;;;;;;;12.63;11.63;;;;;24.30;99790.00;;;;2055487;28;20226;-66
2021/07/14 02:26:48;;;;;;;13.00;12.03;;;;;24.30;99793.00;;;;2059629;28;20282;-66
2021/07/14 02:27:48;;;;;;;11.90;11.10;;;;;24.30;99793.00;;;;2059677;28;20215;-66
2021/07/14 02:28:49;;;;;;;12.93;11.93;;;;;24.30;99795.00;;;;2060386;28;20226;-66
2021/07/14 02:29:49;;;;;;;12.87;11.93;;;;;24.30;99788.00;;;;2060345;28;20235;-66
2021/07/14 02:30:49;;;;;;;13.17;12.20;;;;;24.30;99792.00;;;;2059734;28;20221;-66
2021/07/14 02:31:50;;;;;;;12.43;11.53;;;;;24.30;99792.00;;;;2059750;28;20960;-66
2021/07/14 02:33:05;;;;;;;12.27;11.37;;;;;24.40;99790.00;;;;2059351;28;20588;-66
2021/07/14 02:34:07;;;;;;;12.27;11.38;;;;;24.30;99793.00;;;;2063022;28;20209;-65
2021/07/14 02:35:08;;;;;;;12.50;11.60;;;;;24.30;99794.00;;;;2054851;28;20291;-66
2021/07/14 02:36:10;;;;;;;11.65;10.75;;;;;24.30;99790.00;;;;2036281;29;20211;-66
2021/07/14 02:37:11;;;;;;;12.25;11.35;;;;;24.30;99793.00;;;;2043745;28;20291;-66
2021/07/14 02:38:23;;;;;;;13.10;12.10;;;;;24.30;99790.00;;;;2051173;28;20219;-65
2021/07/14 02:39:24;;;;;;;12.13;11.23;;;;;24.30;99789.00;;;;2045063;28;21427;-65
2021/07/14 02:40:46;;;;;;;12.20;11.30;;;;;24.40;99782.00;;;;2042358;29;20216;-66
2021/07/14 02:41:54;;;;;;;12.43;11.48;;;;;24.30;99787.00;;;;2040599;28;20476;-66
2021/07/14 02:42:55;;;;;;;12.00;11.10;;;;;24.30;99794.00;;;;2053086;28;20223;-66
2021/07/14 02:43:58;;;;;;;13.33;12.33;;;;;24.30;99782.00;;;;2051566;28;20243;-66
2021/07/14 02:45:00;;;;;;;12.75;11.75;;;;;24.30;99782.00;;;;2051558;28;20718;-66
2021/07/14 02:46:08;;;;;;;12.52;11.57;;;;;24.30;99784.00;;;;2050999;28;20236;-66
2021/07/14 02:47:08;;;;;;;12.57;11.65;;;;;24.30;99785.00;;;;2051775;28;20227;-66
2021/07/14 02:48:08;;;;;;;11.93;11.13;;;;;24.30;99787.00;;;;2043393;29;20304;-66
2021/07/14 02:49:10;;;;;;;12.33;11.43;;;;;24.30;99783.00;;;;2043489;29;20225;-66
2021/07/14 02:50:16;;;;;;;11.63;10.82;;;;;24.30;99782.00;;;;2043407;28;20228;-66
2021/07/14 02:51:16;;;;;;;11.77;10.98;;;;;24.30;99788.00;;;;2051466;28;20263;-66
2021/07/14 02:52:18;;;;;;;11.83;11.00;;;;;24.30;99779.00;;;;2050858;28;20630;-66
2021/07/14 02:53:22;;;;;;;11.40;10.60;;;;;24.30;99786.00;;;;2042993;29;21182;-66
2021/07/14 02:54:24;;;;;;;12.10;11.20;;;;;24.30;99781.00;;;;2043029;28;20213;-66
2021/07/14 02:55:26;;;;;;;11.32;10.52;;;;;24.30;99781.00;;;;2043815;28;20240;-65
2021/07/14 02:56:27;;;;;;;12.20;11.30;;;;;24.30;99775.00;;;;2043581;28;20297;-66
2021/07/14 02:57:27;;;;;;;11.73;10.87;;;;;24.30;99788.00;;;;2051550;28;20216;-66
2021/07/14 02:58:29;;;;;;;12.07;11.17;;;;;24.30;99782.00;;;;2043256;29;20481;-65
2021/07/14 02:59:32;;;;;;;11.43;10.63;;;;;24.30;99783.00;;;;2042694;29;20212;-66
2021/07/14 03:00:32;;;;;;;12.35;11.45;;;;;24.30;99781.00;;;;2038746;29;20221;-66
2021/07/14 03:01:33;;;;;;;12.17;11.30;;;;;24.30;99781.00;;;;2031267;29;20221;-66
2021/07/14 03:02:34;;;;;;;11.50;10.65;;;;;24.30;99776.00;;;;2035493;28;20222;-65
2021/07/14 03:03:35;;;;;;;11.32;10.52;;;;;24.30;99775.00;;;;2043626;28;20248;-66
2021/07/14 03:04:42;;;;;;;12.13;11.17;;;;;24.30;99775.00;;;;2046845;28;20670;-66
2021/07/14 03:05:42;;;;;;;11.02;10.23;;;;;24.30;99766.00;;;;2047855;28;20215;-65
2021/07/14 03:06:42;;;;;;;11.90;11.10;;;;;24.30;99774.00;;;;2055792;28;20219;-66
2021/07/14 03:07:43;;;;;;;11.97;11.07;;;;;24.30;99774.00;;;;2035295;29;20300;-66
2021/07/14 03:08:46;;;;;;;11.60;10.80;;;;;24.30;99775.00;;;;2035504;29;20235;-66
2021/07/14 03:09:46;;;;;;;11.45;10.65;;;;;24.30;99772.00;;;;2051205;28;20215;-66
2021/07/14 03:10:46;;;;;;;11.40;10.60;;;;;24.30;99777.00;;;;2049973;28;20706;-65
2021/07/14 03:11:47;;;;;;;11.23;10.43;;;;;24.30;99767.00;;;;2042702;29;20711;-66
2021/07/14 03:12:57;;;;;;;11.53;10.73;;;;;24.30;99767.00;;;;2050549;28;20747;-66
2021/07/14 03:13:58;;;;;;;11.48;10.68;;;;;24.30;99777.00;;;;2043570;29;20209;-66
2021/07/14 03:14:59;;;;;;;11.60;10.70;;;;;24.30;99765.00;;;;2042601;29;20216;-65
2021/07/14 03:15:59;;;;;;;11.90;11.07;;;;;24.30;99773.00;;;;2042606;29;20212;-66
2021/07/14 03:17:00;;;;;;;11.23;10.43;;;;;24.30;99769.00;;;;2043307;29;20264;-66
2021/07/14 03:18:00;;;;;;;10.77;10.07;;;;;24.30;99774.00;;;;2041587;28;20220;-65
2021/07/14 03:19:00;;;;;;;11.37;10.57;;;;;24.30;99776.00;;;;2043209;29;20260;-65
2021/07/14 03:20:03;;;;;;;11.60;10.80;;;;;24.30;99773.00;;;;2059325;28;20215;-66
2021/07/14 03:21:03;;;;;;;10.80;10.10;;;;;24.30;99771.00;;;;2050002;28;20216;-66
2021/07/14 03:22:04;;;;;;;11.80;11.00;;;;;24.30;99770.00;;;;2046676;28;20674;-65
2021/07/14 03:23:04;;;;;;;11.70;10.90;;;;;24.30;99774.00;;;;2046925;29;20212;-66
2021/07/14 03:24:05;;;;;;;10.50;9.80;;;;;24.30;99770.00;;;;2042585;29;20308;-65
2021/07/14 03:25:06;;;;;;;11.32;10.52;;;;;24.30;99767.00;;;;2051113;28;20204;-65
2021/07/14 03:26:06;;;;;;;12.20;11.30;;;;;24.30;99772.00;;;;2051164;28;20741;-65
2021/07/14 03:27:07;;;;;;;11.07;10.27;;;;;24.30;99764.00;;;;2043426;29;20630;-66
2021/07/14 03:28:08;;;;;;;11.73;10.93;;;;;24.30;99764.00;;;;2051076;28;20227;-65
2021/07/14 03:29:08;;;;;;;11.73;10.93;;;;;24.30;99765.00;;;;2042912;29;20236;-66
2021/07/14 03:30:09;;;;;;;11.03;10.27;;;;;24.30;99765.00;;;;2042612;29;20205;-65
2021/07/14 03:31:10;;;;;;;10.60;9.90;;;;;24.30;99766.00;;;;2049810;28;20211;-65
2021/07/14 03:32:10;;;;;;;11.00;10.30;;;;;24.30;99769.00;;;;2042206;29;20855;-65
2021/07/14 03:33:10;;;;;;;11.20;10.40;;;;;24.30;99766.00;;;;2042281;29;20205;-65
2021/07/14 03:34:11;;;;;;;10.67;9.97;;;;;24.30;99773.00;;;;2053825;28;20298;-66
2021/07/14 03:35:12;;;;;;;10.80;10.10;;;;;24.30;99758.00;;;;2060460;28;20763;-66
2021/07/14 03:36:12;;;;;;;11.52;10.73;;;;;24.30;99765.00;;;;2059488;28;20219;-65
2021/07/14 03:37:13;;;;;;;10.93;10.13;;;;;24.30;99770.00;;;;2042700;28;20686;-65
2021/07/14 03:38:13;;;;;;;12.03;11.13;;;;;24.30;99757.00;;;;2043171;29;20264;-66
2021/07/14 03:39:13;;;;;;;11.00;10.30;;;;;24.30;99759.00;;;;2051105;28;20212;-65
2021/07/14 03:40:14;;;;;;;10.90;10.13;;;;;24.30;99765.00;;;;2034964;29;20237;-65
2021/07/14 03:41:14;;;;;;;10.63;9.93;;;;;24.30;99766.00;;;;2035379;29;20217;-66
2021/07/14 03:42:16;;;;;;;11.20;10.40;;;;;24.30;99758.00;;;;2042503;28;20212;-66
2021/07/14 03:43:16;;;;;;;10.85;10.13;;;;;24.30;99767.00;;;;2050577;28;20276;-66
2021/07/14 03:44:17;;;;;;;11.17;10.37;;;;;24.30;99759.00;;;;2050357;28;20235;-66
2021/07/14 03:45:17;;;;;;;11.77;10.87;;;;;24.30;99761.00;;;;2042470;29;20217;-66
2021/07/14 03:46:18;;;;;;;11.27;10.47;;;;;24.30;99765.00;;;;2043024;29;20779;-66
2021/07/14 03:47:18;;;;;;;11.10;10.27;;;;;24.30;99770.00;;;;2043287;29;20243;-65
2021/07/14 03:48:19;;;;;;;10.50;9.80;;;;;24.30;99763.00;;;;2042951;29;20245;-66
2021/07/14 03:49:19;;;;;;;10.37;9.67;;;;;24.30;99762.00;;;;2050823;28;20215;-66
2021/07/14 03:50:20;;;;;;;11.37;10.57;;;;;24.30;99775.00;;;;2042006;29;20224;-65
2021/07/14 03:51:22;;;;;;;11.40;10.60;;;;;24.30;99764.00;;;;2034435;29;20291;-66
2021/07/14 03:52:22;;;;;;;10.55;9.85;;;;;24.30;99769.00;;;;2050477;28;20215;-66
2021/07/14 03:53:23;;;;;;;11.20;10.40;;;;;24.30;99767.00;;;;2050396;28;21115;-66
2021/07/14 03:54:25;;;;;;;10.68;9.88;;;;;24.30;99769.00;;;;2050095;28;20224;-65
2021/07/14 03:55:25;;;;;;;11.57;10.68;;;;;24.30;99758.00;;;;2042275;28;20240;-66
2021/07/14 03:56:26;;;;;;;11.27;10.47;;;;;24.30;99765.00;;;;2050619;28;20595;-65
2021/07/14 03:57:27;;;;;;;11.23;10.43;;;;;24.30;99760.00;;;;2059232;28;20273;-66
2021/07/14 03:58:28;;;;;;;11.75;10.85;;;;;24.30;99753.00;;;;2042341;29;20243;-65
2021/07/14 03:59:30;;;;;;;11.13;10.33;;;;;24.30;99758.00;;;;2034054;29;20221;-65
2021/07/14 04:00:31;;;;;;;10.45;9.75;;;;;24.30;99758.00;;;;2048824;28;20227;-65
2021/07/14 04:01:31;;;;;;;11.40;10.60;;;;;24.30;99761.00;;;;2053967;28;20314;-66
2021/07/14 04:02:31;;;;;;;10.77;9.97;;;;;24.30;99756.00;;;;2049970;28;20248;-65
2021/07/14 04:03:32;;;;;;;10.60;9.90;;;;;24.30;99762.00;;;;2050480;28;20216;-65
2021/07/14 04:04:32;;;;;;;11.07;10.27;;;;;24.30;99761.00;;;;2056820;28;20251;-66
2021/07/14 04:05:32;;;;;;;10.50;9.70;;;;;24.30;99760.00;;;;2056791;28;20221;-66
2021/07/14 04:06:34;;;;;;;10.90;10.10;;;;;24.30;99764.00;;;;2055254;28;20312;-66
2021/07/14 04:07:34;;;;;;;11.20;10.40;;;;;24.30;99770.00;;;;2051059;28;20291;-66
2021/07/14 04:08:42;;;;;;;10.90;10.20;;;;;24.30;99770.00;;;;2050997;28;20325;-66
2021/07/14 04:09:44;;;;;;;11.00;10.20;;;;;24.30;99766.00;;;;2050657;28;20212;-66
2021/07/14 04:10:45;;;;;;;11.25;10.43;;;;;24.30;99771.00;;;;2049931;28;20215;-66
2021/07/14 04:11:46;;;;;;;11.43;10.60;;;;;24.30;99757.00;;;;2049925;28;20226;-66
2021/07/14 04:12:47;;;;;;;9.88;9.27;;;;;24.30;99762.00;;;;2050141;28;20296;-65
2021/07/14 04:13:47;;;;;;;10.68;9.95;;;;;24.30;99757.00;;;;2045646;28;20212;-65
2021/07/14 04:14:48;;;;;;;10.90;10.10;;;;;24.30;99764.00;;;;2050425;28;20287;-66
2021/07/14 04:15:48;;;;;;;11.17;10.37;;;;;24.30;99760.00;;;;2059246;28;20219;-65
2021/07/14 04:16:48;;;;;;;9.93;9.27;;;;;24.30;99752.00;;;;2058939;28;20230;-66
2021/07/14 04:17:49;;;;;;;9.77;9.07;;;;;24.30;99760.00;;;;2059015;28;20211;-65
2021/07/14 04:18:49;;;;;;;10.27;9.57;;;;;24.30;99756.00;;;;2058585;28;20605;-66
2021/07/14 04:19:49;;;;;;;10.63;9.93;;;;;24.30;99759.00;;;;2058696;28;20653;-66
2021/07/14 04:20:50;;;;;;;10.77;10.07;;;;;24.30;99758.00;;;;2058125;28;20702;-66
2021/07/14 04:21:50;;;;;;;9.50;8.90;;;;;24.30;99761.00;;;;2058398;28;20212;-66
2021/07/14 04:22:50;;;;;;;10.80;10.00;;;;;24.30;99756.00;;;;2058908;28;20262;-66
2021/07/14 04:23:51;;;;;;;10.53;9.83;;;;;24.30;99757.00;;;;2050176;28;20343;-66
2021/07/14 04:24:51;;;;;;;10.67;9.87;;;;;24.30;99755.00;;;;2050418;28;20299;-66
2021/07/14 04:25:52;;;;;;;10.60;9.87;;;;;24.30;99751.00;;;;2058542;28;20219;-66
2021/07/14 04:26:53;;;;;;;10.20;9.50;;;;;24.30;99754.00;;;;2057161;28;20217;-66
2021/07/14 04:27:53;;;;;;;9.70;9.00;;;;;24.30;99755.00;;;;2058327;28;20721;-65
2021/07/14 04:28:53;;;;;;;10.83;10.13;;;;;24.30;99757.00;;;;2058276;28;20309;-65
2021/07/14 04:29:54;;;;;;;11.00;10.20;;;;;24.30;99754.00;;;;2053907;28;20309;-66
2021/07/14 04:30:54;;;;;;;10.30;9.60;;;;;24.30;99752.00;;;;2053405;28;20753;-65
2021/07/14 04:31:55;;;;;;;10.97;10.17;;;;;24.30;99750.00;;;;2058780;28;20208;-66
2021/07/14 04:32:55;;;;;;;9.83;9.13;;;;;24.30;99754.00;;;;2056961;28;20224;-66
2021/07/14 04:33:55;;;;;;;10.00;9.30;;;;;24.30;99754.00;;;;2059626;28;20214;-66
2021/07/14 04:34:56;;;;;;;10.37;9.67;;;;;24.30;99749.00;;;;2060236;28;20218;-66
2021/07/14 04:35:58;;;;;;;10.43;9.73;;;;;24.30;99743.00;;;;2058588;28;24950;-66
2021/07/14 04:36:58;;;;;;;11.18;10.38;;;;;24.30;99753.00;;;;2049665;28;20362;-66
2021/07/14 04:37:58;;;;;;;10.50;9.77;;;;;24.30;99748.00;;;;2049526;28;20668;-65
2021/07/14 04:38:59;;;;;;;11.07;10.27;;;;;24.30;99752.00;;;;2058115;28;20581;-65
2021/07/14 04:39:59;;;;;;;11.27;10.47;;;;;24.30;99747.00;;;;2057869;28;20229;-65
2021/07/14 04:40:59;;;;;;;11.00;10.10;;;;;24.30;99742.00;;;;2058051;28;20215;-66
2021/07/14 04:42:00;;;;;;;10.47;9.67;;;;;24.30;99744.00;;;;2058630;28;20214;-65
2021/07/14 04:43:00;;;;;;;10.73;10.03;;;;;24.30;99751.00;;;;2058719;28;20212;-65
2021/07/14 04:44:03;;;;;;;10.23;9.53;;;;;24.30;99756.00;;;;2059093;28;20641;-66
2021/07/14 04:45:04;;;;;;;10.10;9.40;;;;;24.30;99750.00;;;;2059484;28;20726;-66
2021/07/14 04:46:04;;;;;;;11.10;10.30;;;;;24.30;99754.00;;;;2059293;28;20219;-65
2021/07/14 04:47:04;;;;;;;10.57;9.87;;;;;24.30;99753.00;;;;2059283;28;20365;-66
2021/07/14 04:48:06;;;;;;;10.80;10.00;;;;;24.30;99754.00;;;;2058805;28;20235;-66
2021/07/14 04:49:07;;;;;;;10.40;9.70;;;;;24.30;99765.00;;;;2058386;28;20215;-66
2021/07/14 04:50:08;;;;;;;10.15;9.45;;;;;24.30;99750.00;;;;2058148;28;20709;-66
2021/07/14 04:51:09;;;;;;;9.90;9.20;;;;;24.30;99761.00;;;;2057560;28;20223;-66
2021/07/14 04:52:09;;;;;;;10.63;9.83;;;;;24.30;99758.00;;;;2059167;28;20455;-66
2021/07/14 04:53:09;;;;;;;10.30;9.60;;;;;24.30;99762.00;;;;2058943;28;21019;-66
2021/07/14 04:54:10;;;;;;;10.20;9.50;;;;;24.30;99753.00;;;;2058952;28;21632;-66
2021/07/14 04:55:10;;;;;;;10.07;9.27;;;;;24.30;99757.00;;;;2058389;28;22306;-65
2021/07/14 04:56:11;;;;;;;10.53;9.73;;;;;24.30;99757.00;;;;2058715;28;20273;-66
2021/07/14 04:57:11;;;;;;;10.00;9.30;;;;;24.30;99755.00;;;;2058014;28;20219;-66
2021/07/14 04:58:11;;;;;;;9.73;9.03;;;;;24.30;99757.00;;;;2058175;28;20214;-66
2021/07/14 04:59:12;;;;;;;9.73;9.03;;;;;24.30;99754.00;;;;2057770;28;20344;-65
2021/07/14 05:00:16;;;;;;;10.50;9.70;;;;;24.30;99753.00;;;;2057917;28;20223;-66
2021/07/14 05:01:17;;;;;;;10.60;9.80;;;;;24.30;99749.00;;;;2058211;28;20781;-66
2021/07/14 05:02:17;;;;;;;10.20;9.50;;;;;24.30;99753.00;;;;2058824;28;20215;-65
2021/07/14 05:03:18;;;;;;;10.00;9.30;;;;;24.30;99754.00;;;;2058914;28;20234;-66
2021/07/14 05:04:18;;;;;;;9.87;9.17;;;;;24.30;99756.00;;;;2060564;28;20301;-65
2021/07/14 05:05:19;;;;;;;10.07;9.33;;;;;24.30;99760.00;;;;2061254;28;20559;-66
2021/07/14 05:06:19;;;;;;;10.53;9.77;;;;;24.30;99754.00;;;;2060259;28;20760;-66
2021/07/14 05:07:20;;;;;;;10.50;9.80;;;;;24.30;99755.00;;;;2059469;28;20219;-66
2021/07/14 05:08:20;;;;;;;9.87;9.20;;;;;24.30;99757.00;;;;2058384;28;20219;-66
2021/07/14 05:09:20;;;;;;;10.27;9.57;;;;;24.30;99758.00;;;;2058466;28;20219;-66
2021/07/14 05:10:23;;;;;;;10.70;10.00;;;;;24.30;99752.00;;;;2058562;28;20259;-65
2021/07/14 05:11:23;;;;;;;10.38;9.63;;;;;24.30;99752.00;;;;2059280;28;20248;-66